sensor_id;sensor_type;location;lat;lon;timestamp;pressure;altitude;pressure_sealevel;temperature;humidity
71772;BME280;59606;52.138;5.424;2023-05-29T00:00:37;102558.38;;;12.69;74.26
71772;BME280;59606;52.138;5.424;2023-05-29T00:03:04;102555.03;;;12.65;74.54
71772;BME280;59606;52.138;5.424;2023-05-29T00:05:31;102552.41;;;12.65;74.08
71772;BME280;59606;52.138;5.424;2023-05-29T00:07:58;102556.09;;;12.60;74.61
71772;BME280;59606;52.138;5.424;2023-05-29T00:10:24;102558.94;;;12.54;74.59
71772;BME280;59606;52.138;5.424;2023-05-29T00:12:51;102553.81;;;12.50;74.36
71772;BME280;59606;52.138;5.424;2023-05-29T00:15:17;102551.19;;;12.50;74.42
71772;BME280;59606;52.138;5.424;2023-05-29T00:17:44;102549.47;;;12.51;74.59
71772;BME280;59606;52.138;5.424;2023-05-29T00:20:11;102547.78;;;12.48;74.46
71772;BME280;59606;52.138;5.424;2023-05-29T00:22:38;102551.47;;;12.43;74.26
71772;BME280;59606;52.138;5.424;2023-05-29T00:25:05;102549.91;;;12.37;74.70
71772;BME280;59606;52.138;5.424;2023-05-29T00:27:33;102551.00;;;12.32;74.50
71772;BME280;59606;52.138;5.424;2023-05-29T00:30:00;102551.09;;;12.29;74.82
71772;BME280;59606;52.138;5.424;2023-05-29T00:32:26;102551.94;;;12.29;74.85
71772;BME280;59606;52.138;5.424;2023-05-29T00:34:54;102548.50;;;12.29;74.88
71772;BME280;59606;52.138;5.424;2023-05-29T00:37:22;102553.81;;;12.25;74.52
71772;BME280;59606;52.138;5.424;2023-05-29T00:39:49;102555.72;;;12.20;74.79
71772;BME280;59606;52.138;5.424;2023-05-29T00:42:15;102561.84;;;12.19;74.96
71772;BME280;59606;52.138;5.424;2023-05-29T00:44:42;102565.28;;;12.21;74.55
71772;BME280;59606;52.138;5.424;2023-05-29T00:47:08;102568.94;;;12.16;74.83
71772;BME280;59606;52.138;5.424;2023-05-29T00:49:36;102566.50;;;12.11;74.78
71772;BME280;59606;52.138;5.424;2023-05-29T00:52:04;102566.50;;;12.11;74.71
71772;BME280;59606;52.138;5.424;2023-05-29T00:54:33;102575.31;;;12.07;74.92
71772;BME280;59606;52.138;5.424;2023-05-29T00:57:01;102570.25;;;12.02;75.13
71772;BME280;59606;52.138;5.424;2023-05-29T00:59:32;102571.28;;;11.98;75.02
71772;BME280;59606;52.138;5.424;2023-05-29T01:02:01;102576.53;;;11.97;75.28
71772;BME280;59606;52.138;5.424;2023-05-29T01:04:29;102572.19;;;11.97;75.03
71772;BME280;59606;52.138;5.424;2023-05-29T01:06:55;102577.50;;;11.94;75.09
71772;BME280;59606;52.138;5.424;2023-05-29T01:09:23;102570.63;;;11.92;75.52
71772;BME280;59606;52.138;5.424;2023-05-29T01:12:13;102576.69;;;11.92;75.24
71772;BME280;59606;52.138;5.424;2023-05-29T01:20:42;102597.09;;;11.79;75.45
71772;BME280;59606;52.138;5.424;2023-05-29T01:28:37;102608.53;;;11.75;75.51
71772;BME280;59606;52.138;5.424;2023-05-29T01:31:07;102607.72;;;11.73;75.75
71772;BME280;59606;52.138;5.424;2023-05-29T01:33:33;102614.78;;;11.71;75.85
71772;BME280;59606;52.138;5.424;2023-05-29T01:36:00;102618.31;;;11.69;75.79
71772;BME280;59606;52.138;5.424;2023-05-29T01:38:26;102621.88;;;11.66;75.83
71772;BME280;59606;52.138;5.424;2023-05-29T01:40:53;102614.94;;;11.65;75.73
71772;BME280;59606;52.138;5.424;2023-05-29T01:43:20;102621.94;;;11.65;76.14
71772;BME280;59606;52.138;5.424;2023-05-29T01:45:46;102625.47;;;11.62;76.09
71772;BME280;59606;52.138;5.424;2023-05-29T01:48:13;102623.72;;;11.63;75.85
71772;BME280;59606;52.138;5.424;2023-05-29T01:50:40;102633.41;;;11.59;75.83
71772;BME280;59606;52.138;5.424;2023-05-29T01:53:10;102624.00;;;11.53;75.92
71772;BME280;59606;52.138;5.424;2023-05-29T01:55:36;102628.50;;;11.48;76.06
71772;BME280;59606;52.138;5.424;2023-05-29T01:58:03;102628.56;;;11.47;76.03
71772;BME280;59606;52.138;5.424;2023-05-29T02:00:31;102630.31;;;11.46;76.27
71772;BME280;59606;52.138;5.424;2023-05-29T02:02:57;102633.13;;;11.40;76.26
71772;BME280;59606;52.138;5.424;2023-05-29T02:05:24;102641.91;;;11.36;76.34
71772;BME280;59606;52.138;5.424;2023-05-29T02:07:50;102640.34;;;11.30;76.47
71772;BME280;59606;52.138;5.424;2023-05-29T02:10:17;102645.69;;;11.26;76.82
71772;BME280;59606;52.138;5.424;2023-05-29T02:12:43;102649.34;;;11.20;77.08
71772;BME280;59606;52.138;5.424;2023-05-29T02:15:10;102638.09;;;11.18;77.05
71772;BME280;59606;52.138;5.424;2023-05-29T02:17:37;102624.22;;;11.16;77.39
71772;BME280;59606;52.138;5.424;2023-05-29T02:20:04;102620.78;;;11.16;77.31
71772;BME280;59606;52.138;5.424;2023-05-29T02:22:31;102618.41;;;11.06;77.53
71772;BME280;59606;52.138;5.424;2023-05-29T02:24:57;102618.47;;;11.05;77.39
71772;BME280;59606;52.138;5.424;2023-05-29T02:27:23;102622.84;;;11.04;77.52
71772;BME280;59606;52.138;5.424;2023-05-29T02:29:50;102625.53;;;11.01;77.84
71772;BME280;59606;52.138;5.424;2023-05-29T02:32:17;102624.63;;;11.02;77.78
71772;BME280;59606;52.138;5.424;2023-05-29T02:34:43;102628.13;;;11.01;77.67
71772;BME280;59606;52.138;5.424;2023-05-29T02:37:10;102630.88;;;10.97;77.67
71772;BME280;59606;52.138;5.424;2023-05-29T02:39:36;102628.38;;;10.92;77.62
71772;BME280;59606;52.138;5.424;2023-05-29T02:42:03;102631.91;;;10.90;77.97
71772;BME280;59606;52.138;5.424;2023-05-29T02:44:29;102638.94;;;10.88;78.05
71772;BME280;59606;52.138;5.424;2023-05-29T02:46:56;102629.50;;;10.83;78.26
71772;BME280;59606;52.138;5.424;2023-05-29T02:49:22;102625.16;;;10.82;78.18
71772;BME280;59606;52.138;5.424;2023-05-29T02:51:49;102631.34;;;10.80;77.93
71772;BME280;59606;52.138;5.424;2023-05-29T02:54:15;102626.22;;;10.75;78.67
71772;BME280;59606;52.138;5.424;2023-05-29T02:56:42;102636.75;;;10.72;78.89
71772;BME280;59606;52.138;5.424;2023-05-29T02:59:08;102622.94;;;10.69;78.72
71772;BME280;59606;52.138;5.424;2023-05-29T03:01:34;102635.13;;;10.68;78.90
71772;BME280;59606;52.138;5.424;2023-05-29T03:04:01;102636.81;;;10.69;78.91
71772;BME280;59606;52.138;5.424;2023-05-29T03:06:28;102637.72;;;10.68;79.38
71772;BME280;59606;52.138;5.424;2023-05-29T03:08:54;102634.41;;;10.63;79.17
71772;BME280;59606;52.138;5.424;2023-05-29T03:11:21;102635.34;;;10.59;79.16
71772;BME280;59606;52.138;5.424;2023-05-29T03:13:51;102638.84;;;10.58;79.00
71772;BME280;59606;52.138;5.424;2023-05-29T03:16:17;102630.19;;;10.57;79.38
71772;BME280;59606;52.138;5.424;2023-05-29T03:18:44;102632.09;;;10.51;79.22
71772;BME280;59606;52.138;5.424;2023-05-29T03:21:10;102627.78;;;10.50;78.98
71772;BME280;59606;52.138;5.424;2023-05-29T03:23:37;102625.22;;;10.48;79.16
71772;BME280;59606;52.138;5.424;2023-05-29T03:26:04;102625.22;;;10.48;79.49
71772;BME280;59606;52.138;5.424;2023-05-29T03:28:32;102620.97;;;10.44;79.46
71772;BME280;59606;52.138;5.424;2023-05-29T03:30:58;102634.03;;;10.43;79.74
71772;BME280;59606;52.138;5.424;2023-05-29T03:33:25;102626.31;;;10.40;79.52
71772;BME280;59606;52.138;5.424;2023-05-29T03:35:51;102630.69;;;10.37;79.96
71772;BME280;59606;52.138;5.424;2023-05-29T03:38:18;102630.72;;;10.36;79.77
71772;BME280;59606;52.138;5.424;2023-05-29T03:40:44;102625.63;;;10.31;79.77
71772;BME280;59606;52.138;5.424;2023-05-29T03:43:11;102625.63;;;10.33;79.83
71772;BME280;59606;52.138;5.424;2023-05-29T03:45:37;102630.91;;;10.30;79.83
71772;BME280;59606;52.138;5.424;2023-05-29T03:48:04;102631.81;;;10.27;79.47
71772;BME280;59606;52.138;5.424;2023-05-29T03:50:31;102625.75;;;10.27;79.80
71772;BME280;59606;52.138;5.424;2023-05-29T03:52:57;102634.34;;;10.30;79.65
71772;BME280;59606;52.138;5.424;2023-05-29T03:55:26;102636.13;;;10.28;79.49
71772;BME280;59606;52.138;5.424;2023-05-29T03:57:53;102636.97;;;10.30;79.81
71772;BME280;59606;52.138;5.424;2023-05-29T04:00:20;102635.16;;;10.32;79.91
71772;BME280;59606;52.138;5.424;2023-05-29T04:02:47;102642.19;;;10.30;79.47
71772;BME280;59606;52.138;5.424;2023-05-29T04:05:13;102632.56;;;10.32;79.65
71772;BME280;59606;52.138;5.424;2023-05-29T04:07:41;102641.25;;;10.33;79.48
71772;BME280;59606;52.138;5.424;2023-05-29T04:10:08;102645.56;;;10.34;79.87
71772;BME280;59606;52.138;5.424;2023-05-29T04:12:35;102645.66;;;10.29;79.89
71772;BME280;59606;52.138;5.424;2023-05-29T04:15:01;102645.69;;;10.28;79.99
71772;BME280;59606;52.138;5.424;2023-05-29T04:17:28;102647.38;;;10.30;79.84
71772;BME280;59606;52.138;5.424;2023-05-29T04:19:55;102646.53;;;10.30;79.66
71772;BME280;59606;52.138;5.424;2023-05-29T04:22:22;102661.25;;;10.31;79.82
71772;BME280;59606;52.138;5.424;2023-05-29T04:24:48;102656.88;;;10.33;79.57
71772;BME280;59606;52.138;5.424;2023-05-29T04:27:15;102662.94;;;10.33;79.80
71772;BME280;59606;52.138;5.424;2023-05-29T04:29:42;102663.78;;;10.34;79.89
71772;BME280;59606;52.138;5.424;2023-05-29T04:32:09;102666.47;;;10.31;79.70
71772;BME280;59606;52.138;5.424;2023-05-29T04:34:38;102667.31;;;10.31;79.87
71772;BME280;59606;52.138;5.424;2023-05-29T04:37:10;102669.84;;;10.34;80.02
71772;BME280;59606;52.138;5.424;2023-05-29T04:39:36;102675.00;;;10.37;80.09
71772;BME280;59606;52.138;5.424;2023-05-29T04:42:03;102684.56;;;10.37;79.53
71772;BME280;59606;52.138;5.424;2023-05-29T04:44:29;102677.53;;;10.39;79.80
71772;BME280;59606;52.138;5.424;2023-05-29T04:46:56;102683.63;;;10.40;79.94
71772;BME280;59606;52.138;5.424;2023-05-29T04:49:23;102682.66;;;10.44;80.36
71772;BME280;59606;52.138;5.424;2023-05-29T04:51:50;102675.56;;;10.50;79.85
71772;BME280;59606;52.138;5.424;2023-05-29T04:54:21;102681.50;;;10.55;79.65
71772;BME280;59606;52.138;5.424;2023-05-29T04:56:47;102679.66;;;10.59;79.25
71772;BME280;59606;52.138;5.424;2023-05-29T04:59:14;102682.19;;;10.62;79.58
71772;BME280;59606;52.138;5.424;2023-05-29T05:01:41;102675.16;;;10.66;79.01
71772;BME280;59606;52.138;5.424;2023-05-29T05:04:09;102682.88;;;10.70;78.98
71772;BME280;59606;52.138;5.424;2023-05-29T05:06:36;102680.06;;;10.76;79.00
71772;BME280;59606;52.138;5.424;2023-05-29T05:09:04;102686.03;;;10.81;78.81
71772;BME280;59606;52.138;5.424;2023-05-29T05:11:31;102688.41;;;10.91;78.71
71772;BME280;59606;52.138;5.424;2023-05-29T05:13:57;102695.19;;;10.96;78.33
71772;BME280;59606;52.138;5.424;2023-05-29T05:16:24;102690.81;;;10.98;78.09
71772;BME280;59606;52.138;5.424;2023-05-29T05:18:51;102689.09;;;10.97;77.36
71772;BME280;59606;52.138;5.424;2023-05-29T05:21:17;102696.03;;;10.98;77.60
71772;BME280;59606;52.138;5.424;2023-05-29T05:23:45;102689.03;;;11.00;77.86
71772;BME280;59606;52.138;5.424;2023-05-29T05:26:24;102685.19;;;11.14;77.98
71772;BME280;59606;52.138;5.424;2023-05-29T05:28:51;102690.31;;;11.17;76.81
71772;BME280;59606;52.138;5.424;2023-05-29T05:31:18;102695.44;;;11.20;76.73
71772;BME280;59606;52.138;5.424;2023-05-29T05:33:45;102687.50;;;11.24;77.24
71772;BME280;59606;52.138;5.424;2023-05-29T05:36:12;102688.97;;;11.33;75.87
71772;BME280;59606;52.138;5.424;2023-05-29T05:38:38;102686.28;;;11.36;76.49
71772;BME280;59606;52.138;5.424;2023-05-29T05:41:05;102699.13;;;11.44;75.66
71772;BME280;59606;52.138;5.424;2023-05-29T05:43:32;102701.75;;;11.44;74.92
71772;BME280;59606;52.138;5.424;2023-05-29T05:45:58;102694.69;;;11.47;74.72
71772;BME280;59606;52.138;5.424;2023-05-29T05:48:25;102701.38;;;11.56;74.17
71772;BME280;59606;52.138;5.424;2023-05-29T05:50:52;102702.03;;;11.64;74.35
71772;BME280;59606;52.138;5.424;2023-05-29T05:53:18;102709.44;;;11.78;74.15
71772;BME280;59606;52.138;5.424;2023-05-29T05:55:45;102703.59;;;11.99;73.01
71772;BME280;59606;52.138;5.424;2023-05-29T05:58:12;102705.47;;;12.22;72.84
71772;BME280;59606;52.138;5.424;2023-05-29T06:00:42;102710.56;;;12.54;72.03
71772;BME280;59606;52.138;5.424;2023-05-29T06:03:09;102711.09;;;12.90;70.37
71772;BME280;59606;52.138;5.424;2023-05-29T06:05:35;102708.88;;;13.29;69.06
71772;BME280;59606;52.138;5.424;2023-05-29T06:08:02;102702.25;;;13.66;66.79
71772;BME280;59606;52.138;5.424;2023-05-29T06:10:29;102705.00;;;14.08;65.21
71772;BME280;59606;52.138;5.424;2023-05-29T06:12:56;102700.13;;;14.42;64.51
71772;BME280;59606;52.138;5.424;2023-05-29T06:15:22;102695.34;;;14.53;63.00
71772;BME280;59606;52.138;5.424;2023-05-29T06:17:49;102702.78;;;14.20;63.48
71772;BME280;59606;52.138;5.424;2023-05-29T06:20:18;102700.50;;;13.66;64.44
71772;BME280;59606;52.138;5.424;2023-05-29T06:22:46;102701.19;;;13.25;64.80
71772;BME280;59606;52.138;5.424;2023-05-29T06:25:17;102706.81;;;12.87;66.95
71772;BME280;59606;52.138;5.424;2023-05-29T06:27:46;102699.63;;;12.67;67.64
71772;BME280;59606;52.138;5.424;2023-05-29T06:30:13;102708.59;;;12.60;67.46
71772;BME280;59606;52.138;5.424;2023-05-29T06:32:40;102713.28;;;12.50;67.00
71772;BME280;59606;52.138;5.424;2023-05-29T06:35:07;102723.78;;;12.49;67.79
71772;BME280;59606;52.138;5.424;2023-05-29T06:37:33;102712.63;;;12.44;67.00
71772;BME280;59606;52.138;5.424;2023-05-29T06:40:00;102713.44;;;12.46;66.99
71772;BME280;59606;52.138;5.424;2023-05-29T06:42:27;102715.75;;;12.55;68.07
71772;BME280;59606;52.138;5.424;2023-05-29T06:44:54;102706.34;;;12.76;67.10
71772;BME280;59606;52.138;5.424;2023-05-29T06:47:21;102708.84;;;12.79;67.12
71772;BME280;59606;52.138;5.424;2023-05-29T06:49:47;102717.06;;;12.93;67.66
71772;BME280;59606;52.138;5.424;2023-05-29T06:52:14;102723.03;;;12.97;65.98
71772;BME280;59606;52.138;5.424;2023-05-29T06:54:40;102715.06;;;13.02;66.17
71772;BME280;59606;52.138;5.424;2023-05-29T06:57:08;102715.19;;;12.97;65.60
71772;BME280;59606;52.138;5.424;2023-05-29T06:59:37;102718.53;;;13.02;65.78
71772;BME280;59606;52.138;5.424;2023-05-29T07:02:04;102714.25;;;13.00;64.23
71772;BME280;59606;52.138;5.424;2023-05-29T07:04:31;102726.69;;;12.93;65.08
71772;BME280;59606;52.138;5.424;2023-05-29T07:06:58;102716.66;;;13.06;65.06
71772;BME280;59606;52.138;5.424;2023-05-29T07:09:25;102717.28;;;13.12;65.38
71772;BME280;59606;52.138;5.424;2023-05-29T07:11:51;102729.91;;;13.26;64.89
71772;BME280;59606;52.138;5.424;2023-05-29T07:14:18;102721.00;;;13.32;64.78
71772;BME280;59606;52.138;5.424;2023-05-29T07:16:45;102713.81;;;13.37;63.74
71772;BME280;59606;52.138;5.424;2023-05-29T07:19:11;102712.13;;;13.36;63.23
71772;BME280;59606;52.138;5.424;2023-05-29T07:21:47;102721.72;;;13.35;63.60
71772;BME280;59606;52.138;5.424;2023-05-29T07:24:14;102719.38;;;13.28;63.43
71772;BME280;59606;52.138;5.424;2023-05-29T07:26:41;102730.47;;;13.34;64.13
71772;BME280;59606;52.138;5.424;2023-05-29T07:29:09;102731.00;;;13.44;62.72
71772;BME280;59606;52.138;5.424;2023-05-29T07:31:36;102734.25;;;13.51;63.44
71772;BME280;59606;52.138;5.424;2023-05-29T07:34:02;102734.75;;;13.60;63.25
71772;BME280;59606;52.138;5.424;2023-05-29T07:36:30;102739.56;;;13.73;62.44
71772;BME280;59606;52.138;5.424;2023-05-29T07:39:00;102738.53;;;13.77;62.04
71772;BME280;59606;52.138;5.424;2023-05-29T07:41:26;102730.63;;;13.78;61.49
71772;BME280;59606;52.138;5.424;2023-05-29T07:43:53;102730.38;;;13.84;61.84
71772;BME280;59606;52.138;5.424;2023-05-29T07:46:22;102731.44;;;14.02;62.02
71772;BME280;59606;52.138;5.424;2023-05-29T07:48:48;102729.72;;;14.01;60.42
71772;BME280;59606;52.138;5.424;2023-05-29T07:51:15;102720.03;;;14.03;62.92
71772;BME280;59606;52.138;5.424;2023-05-29T07:53:44;102735.53;;;14.09;60.10
71772;BME280;59606;52.138;5.424;2023-05-29T07:56:11;102733.81;;;14.08;61.31
71772;BME280;59606;52.138;5.424;2023-05-29T07:58:37;102733.69;;;14.11;59.28
71772;BME280;59606;52.138;5.424;2023-05-29T08:01:04;102734.84;;;14.04;60.31
71772;BME280;59606;52.138;5.424;2023-05-29T08:03:31;102748.06;;;14.01;59.34
71772;BME280;59606;52.138;5.424;2023-05-29T08:05:58;102743.81;;;13.99;59.17
71772;BME280;59606;52.138;5.424;2023-05-29T08:08:25;102734.19;;;13.99;59.68
71772;BME280;59606;52.138;5.424;2023-05-29T08:10:52;102734.72;;;14.07;59.79
71772;BME280;59606;52.138;5.424;2023-05-29T08:13:18;102735.03;;;14.22;59.35
71772;BME280;59606;52.138;5.424;2023-05-29T08:15:45;102731.16;;;14.32;59.97
71772;BME280;59606;52.138;5.424;2023-05-29T08:18:12;102731.00;;;14.35;60.08
71772;BME280;59606;52.138;5.424;2023-05-29T08:20:38;102741.06;;;14.46;59.05
71772;BME280;59606;52.138;5.424;2023-05-29T08:23:05;102744.22;;;14.55;58.03
71772;BME280;59606;52.138;5.424;2023-05-29T08:25:31;102740.41;;;14.63;57.80
71772;BME280;59606;52.138;5.424;2023-05-29T08:27:58;102744.53;;;14.68;57.05
71772;BME280;59606;52.138;5.424;2023-05-29T08:30:24;102737.59;;;14.67;59.04
71772;BME280;59606;52.138;5.424;2023-05-29T08:32:52;102739.13;;;14.73;58.76
71772;BME280;59606;52.138;5.424;2023-05-29T08:35:18;102739.13;;;14.73;57.72
71772;BME280;59606;52.138;5.424;2023-05-29T08:37:45;102734.97;;;14.67;57.72
71772;BME280;59606;52.138;5.424;2023-05-29T08:40:12;102734.38;;;14.81;57.83
71772;BME280;59606;52.138;5.424;2023-05-29T08:42:46;102739.13;;;14.93;57.58
71772;BME280;59606;52.138;5.424;2023-05-29T08:45:14;102738.88;;;14.99;58.03
71772;BME280;59606;52.138;5.424;2023-05-29T08:47:41;102746.16;;;14.93;57.21
71772;BME280;59606;52.138;5.424;2023-05-29T08:50:13;102743.81;;;14.85;57.04
71772;BME280;59606;52.138;5.424;2023-05-29T08:52:41;102743.91;;;14.83;55.78
71772;BME280;59606;52.138;5.424;2023-05-29T08:55:08;102740.31;;;14.86;56.01
71772;BME280;59606;52.138;5.424;2023-05-29T08:57:36;102743.91;;;14.83;56.30
71772;BME280;59606;52.138;5.424;2023-05-29T09:00:04;102753.69;;;15.00;57.18
71772;BME280;59606;52.138;5.424;2023-05-29T09:02:39;102759.19;;;15.15;57.71
71772;BME280;59606;52.138;5.424;2023-05-29T09:05:06;102752.81;;;15.20;55.93
71772;BME280;59606;52.138;5.424;2023-05-29T09:07:33;102743.88;;;15.24;55.36
71772;BME280;59606;52.138;5.424;2023-05-29T09:10:00;102750.69;;;15.28;55.98
71772;BME280;59606;52.138;5.424;2023-05-29T09:12:27;102750.09;;;15.42;55.50
71772;BME280;59606;52.138;5.424;2023-05-29T09:14:54;102750.09;;;15.42;54.30
71772;BME280;59606;52.138;5.424;2023-05-29T09:17:20;102756.97;;;15.45;54.77
71772;BME280;59606;52.138;5.424;2023-05-29T09:19:48;102750.78;;;15.46;54.73
71772;BME280;59606;52.138;5.424;2023-05-29T09:22:15;102755.06;;;15.29;55.35
71772;BME280;59606;52.138;5.424;2023-05-29T09:24:45;102751.22;;;15.37;55.08
71772;BME280;59606;52.138;5.424;2023-05-29T09:27:12;102750.53;;;15.52;55.32
71772;BME280;59606;52.138;5.424;2023-05-29T09:29:41;102750.19;;;15.60;56.10
71772;BME280;59606;52.138;5.424;2023-05-29T09:32:14;102744.66;;;15.66;54.71
71772;BME280;59606;52.138;5.424;2023-05-29T09:34:42;102750.59;;;15.71;54.84
71772;BME280;59606;52.138;5.424;2023-05-29T09:37:10;102751.94;;;15.79;55.00
71772;BME280;59606;52.138;5.424;2023-05-29T09:39:45;102751.59;;;15.87;54.47
71772;BME280;59606;52.138;5.424;2023-05-29T09:42:14;102739.00;;;15.94;54.45
71772;BME280;59606;52.138;5.424;2023-05-29T09:44:41;102742.06;;;16.03;53.77
71772;BME280;59606;52.138;5.424;2023-05-29T09:47:09;102744.03;;;16.17;54.10
71772;BME280;59606;52.138;5.424;2023-05-29T09:49:41;102740.56;;;16.17;53.06
71772;BME280;59606;52.138;5.424;2023-05-29T09:52:07;102737.13;;;16.15;52.88
71772;BME280;59606;52.138;5.424;2023-05-29T09:54:34;102741.44;;;16.16;52.68
71772;BME280;59606;52.138;5.424;2023-05-29T09:57:03;102742.00;;;16.22;52.69
71772;BME280;59606;52.138;5.424;2023-05-29T09:59:31;102736.16;;;16.35;53.97
71772;BME280;59606;52.138;5.424;2023-05-29T10:02:01;102737.00;;;16.35;53.38
71772;BME280;59606;52.138;5.424;2023-05-29T10:04:31;102728.75;;;16.43;51.32
71772;BME280;59606;52.138;5.424;2023-05-29T10:07:05;102741.59;;;16.49;51.81
71772;BME280;59606;52.138;5.424;2023-05-29T10:09:35;102729.84;;;16.56;52.43
71772;BME280;59606;52.138;5.424;2023-05-29T10:12:05;102740.84;;;16.64;50.78
71772;BME280;59606;52.138;5.424;2023-05-29T10:14:34;102733.56;;;16.52;51.47
71772;BME280;59606;52.138;5.424;2023-05-29T10:17:04;102732.47;;;16.56;51.51
71772;BME280;59606;52.138;5.424;2023-05-29T10:19:36;102725.50;;;16.55;51.57
71772;BME280;59606;52.138;5.424;2023-05-29T10:22:05;102726.44;;;16.71;51.58
71772;BME280;59606;52.138;5.424;2023-05-29T10:24:33;102717.44;;;16.77;51.92
71772;BME280;59606;52.138;5.424;2023-05-29T10:27:01;102722.84;;;16.91;51.56
71772;BME280;59606;52.138;5.424;2023-05-29T10:29:36;102714.22;;;17.05;51.41
71772;BME280;59606;52.138;5.424;2023-05-29T10:35:06;102716.13;;;17.19;50.33
71772;BME280;59606;52.138;5.424;2023-05-29T10:37:46;102713.84;;;17.29;49.78
71772;BME280;59606;52.138;5.424;2023-05-29T10:40:22;102718.19;;;17.30;50.33
71772;BME280;59606;52.138;5.424;2023-05-29T10:42:50;102725.28;;;17.45;49.86
71772;BME280;59606;52.138;5.424;2023-05-29T10:50:36;102719.25;;;17.59;47.86
71772;BME280;59606;52.138;5.424;2023-05-29T10:53:03;102711.25;;;17.60;46.97
71772;BME280;59606;52.138;5.424;2023-05-29T10:55:36;102717.03;;;17.51;47.71
71772;BME280;59606;52.138;5.424;2023-05-29T10:58:07;102713.13;;;17.58;46.56
71772;BME280;59606;52.138;5.424;2023-05-29T11:00:39;102708.22;;;17.68;46.91
71772;BME280;59606;52.138;5.424;2023-05-29T11:03:08;102704.75;;;17.83;47.62
71772;BME280;59606;52.138;5.424;2023-05-29T11:05:55;102715.75;;;17.92;48.68
71772;BME280;59606;52.138;5.424;2023-05-29T11:08:39;102707.91;;;17.90;49.09
71772;BME280;59606;52.138;5.424;2023-05-29T11:11:11;102719.06;;;17.95;47.50
71772;BME280;59606;52.138;5.424;2023-05-29T11:13:39;102707.31;;;17.85;45.88
71772;BME280;59606;52.138;5.424;2023-05-29T11:18:52;102712.31;;;18.05;45.53
71772;BME280;59606;52.138;5.424;2023-05-29T11:21:42;102709.69;;;18.05;44.35
71772;BME280;59606;52.138;5.424;2023-05-29T11:24:21;102706.81;;;17.94;45.51
71772;BME280;59606;52.138;5.424;2023-05-29T11:26:48;102696.06;;;17.97;45.22
71772;BME280;59606;52.138;5.424;2023-05-29T11:29:14;102704.06;;;17.96;44.63
71772;BME280;59606;52.138;5.424;2023-05-29T11:31:43;102699.41;;;18.01;45.18
71772;BME280;59606;52.138;5.424;2023-05-29T11:34:14;102702.94;;;18.16;44.19
71772;BME280;59606;52.138;5.424;2023-05-29T11:36:41;102700.47;;;18.12;43.99
71772;BME280;59606;52.138;5.424;2023-05-29T11:39:09;102698.50;;;18.16;44.73
71772;BME280;59606;52.138;5.424;2023-05-29T11:41:36;102701.16;;;18.16;45.19
71772;BME280;59606;52.138;5.424;2023-05-29T11:44:04;102700.19;;;18.33;43.67
71772;BME280;59606;52.138;5.424;2023-05-29T11:46:32;102696.41;;;18.37;43.70
71772;BME280;59606;52.138;5.424;2023-05-29T11:49:01;102703.28;;;18.25;44.21
71772;BME280;59606;52.138;5.424;2023-05-29T11:51:28;102706.94;;;18.23;44.96
71772;BME280;59606;52.138;5.424;2023-05-29T11:53:54;102707.34;;;18.31;45.69
71772;BME280;59606;52.138;5.424;2023-05-29T11:56:28;102704.28;;;18.23;45.51
71772;BME280;59606;52.138;5.424;2023-05-29T11:58:58;102696.47;;;18.21;46.67
71772;BME280;59606;52.138;5.424;2023-05-29T12:01:26;102694.63;;;18.37;45.61
71772;BME280;59606;52.138;5.424;2023-05-29T12:03:54;102695.41;;;18.40;45.12
71772;BME280;59606;52.138;5.424;2023-05-29T12:06:34;102690.09;;;18.25;44.88
71772;BME280;59606;52.138;5.424;2023-05-29T12:09:01;102706.66;;;18.27;44.72
71772;BME280;59606;52.138;5.424;2023-05-29T12:11:30;102694.34;;;18.28;45.95
71772;BME280;59606;52.138;5.424;2023-05-29T12:13:58;102708.03;;;18.34;45.54
71772;BME280;59606;52.138;5.424;2023-05-29T12:16:30;102700.00;;;18.36;44.24
71772;BME280;59606;52.138;5.424;2023-05-29T12:18:57;102695.84;;;18.32;44.02
71772;BME280;59606;52.138;5.424;2023-05-29T12:21:24;102693.06;;;18.49;44.88
71772;BME280;59606;52.138;5.424;2023-05-29T12:23:52;102700.00;;;18.66;44.74
71772;BME280;59606;52.138;5.424;2023-05-29T12:26:39;102698.00;;;18.55;45.23
71772;BME280;59606;52.138;5.424;2023-05-29T12:29:05;102692.13;;;18.50;45.86
71772;BME280;59606;52.138;5.424;2023-05-29T12:31:32;102701.84;;;18.50;44.96
71772;BME280;59606;52.138;5.424;2023-05-29T12:34:07;102702.97;;;18.46;44.95
71772;BME280;59606;52.138;5.424;2023-05-29T12:36:34;102701.09;;;18.48;43.87
71772;BME280;59606;52.138;5.424;2023-05-29T12:39:05;102689.06;;;18.28;43.81
71772;BME280;59606;52.138;5.424;2023-05-29T12:41:36;102691.97;;;18.37;43.67
71772;BME280;59606;52.138;5.424;2023-05-29T12:44:05;102690.75;;;18.59;44.57
71772;BME280;59606;52.138;5.424;2023-05-29T12:49:17;102681.97;;;18.89;43.80
71772;BME280;59606;52.138;5.424;2023-05-29T12:51:46;102676.88;;;18.86;43.35
71772;BME280;59606;52.138;5.424;2023-05-29T12:54:14;102679.31;;;18.89;43.11
71772;BME280;59606;52.138;5.424;2023-05-29T12:56:41;102696.19;;;18.86;43.26
71772;BME280;59606;52.138;5.424;2023-05-29T12:59:08;102685.19;;;18.64;44.19
71772;BME280;59606;52.138;5.424;2023-05-29T13:01:36;102686.63;;;18.69;44.81
71772;BME280;59606;52.138;5.424;2023-05-29T13:04:05;102697.69;;;18.76;44.34
71772;BME280;59606;52.138;5.424;2023-05-29T13:06:37;102690.81;;;18.88;44.74
71772;BME280;59606;52.138;5.424;2023-05-29T13:09:04;102682.16;;;19.00;42.79
71772;BME280;59606;52.138;5.424;2023-05-29T13:11:31;102696.19;;;19.15;43.49
71772;BME280;59606;52.138;5.424;2023-05-29T13:13:58;102697.06;;;19.29;43.04
71772;BME280;59606;52.138;5.424;2023-05-29T13:16:24;102689.63;;;19.22;42.78
71772;BME280;59606;52.138;5.424;2023-05-29T13:18:51;102686.38;;;19.31;44.82